sensor_id;sensor_type;location;lat;lon;timestamp;P1;P2;P0
62631;PMS5003;48703;51.248;-0.546;2024-01-07T00:02:38;12.72;12.23;
62631;PMS5003;48703;51.248;-0.546;2024-01-07T00:05:40;12.86;11.78;
62631;PMS5003;48703;51.248;-0.546;2024-01-07T00:08:42;13.51;11.24;
62631;PMS5003;48703;51.248;-0.546;2024-01-07T00:11:43;11.19;10.41;
62631;PMS5003;48703;51.248;-0.546;2024-01-07T00:14:45;11.94;9.69;
62631;PMS5003;48703;51.248;-0.546;2024-01-07T00:17:46;9.50;8.11;
62631;PMS5003;48703;51.248;-0.546;2024-01-07T00:20:48;9.04;9.04;
62631;PMS5003;48703;51.248;-0.546;2024-01-07T00:23:50;9.26;8.74;
62631;PMS5003;48703;51.248;-0.546;2024-01-07T00:26:51;9.47;9.34;
62631;PMS5003;48703;51.248;-0.546;2024-01-07T00:29:53;10.01;8.24;
62631;PMS5003;48703;51.248;-0.546;2024-01-07T00:32:55;9.09;8.07;
62631;PMS5003;48703;51.248;-0.546;2024-01-07T00:35:57;9.37;9.00;
62631;PMS5003;48703;51.248;-0.546;2024-01-07T00:38:58;7.83;7.31;
62631;PMS5003;48703;51.248;-0.546;2024-01-07T00:42:00;7.99;7.56;
62631;PMS5003;48703;51.248;-0.546;2024-01-07T00:45:02;8.60;7.61;
62631;PMS5003;48703;51.248;-0.546;2024-01-07T00:48:04;6.53;6.06;
62631;PMS5003;48703;51.248;-0.546;2024-01-07T00:51:05;7.29;6.69;
62631;PMS5003;48703;51.248;-0.546;2024-01-07T00:54:07;6.29;6.06;
62631;PMS5003;48703;51.248;-0.546;2024-01-07T00:57:10;7.51;6.69;
62631;PMS5003;48703;51.248;-0.546;2024-01-07T01:00:11;7.11;6.60;
62631;PMS5003;48703;51.248;-0.546;2024-01-07T01:03:12;7.59;7.16;
62631;PMS5003;48703;51.248;-0.546;2024-01-07T01:06:14;7.47;6.83;
62631;PMS5003;48703;51.248;-0.546;2024-01-07T01:09:15;4.97;4.97;
62631;PMS5003;48703;51.248;-0.546;2024-01-07T01:12:17;6.33;5.69;
62631;PMS5003;48703;51.248;-0.546;2024-01-07T01:15:19;4.94;4.74;
62631;PMS5003;48703;51.248;-0.546;2024-01-07T01:18:21;5.57;5.26;
62631;PMS5003;48703;51.248;-0.546;2024-01-07T01:21:23;6.23;4.64;
62631;PMS5003;48703;51.248;-0.546;2024-01-07T01:24:24;4.66;4.66;
62631;PMS5003;48703;51.248;-0.546;2024-01-07T01:27:26;5.00;4.57;
62631;PMS5003;48703;51.248;-0.546;2024-01-07T01:30:28;5.29;4.36;
62631;PMS5003;48703;51.248;-0.546;2024-01-07T01:33:30;5.06;4.41;
62631;PMS5003;48703;51.248;-0.546;2024-01-07T01:36:32;5.63;5.16;
62631;PMS5003;48703;51.248;-0.546;2024-01-07T01:39:35;5.73;5.26;
62631;PMS5003;48703;51.248;-0.546;2024-01-07T01:42:35;4.99;4.71;
62631;PMS5003;48703;51.248;-0.546;2024-01-07T01:45:37;4.90;4.64;
62631;PMS5003;48703;51.248;-0.546;2024-01-07T01:48:39;7.03;4.56;
62631;PMS5003;48703;51.248;-0.546;2024-01-07T01:51:41;3.27;3.27;
62631;PMS5003;48703;51.248;-0.546;2024-01-07T01:54:42;7.09;4.37;
62631;PMS5003;48703;51.248;-0.546;2024-01-07T01:57:44;4.30;3.33;
62631;PMS5003;48703;51.248;-0.546;2024-01-07T02:00:47;3.94;3.89;
62631;PMS5003;48703;51.248;-0.546;2024-01-07T02:03:48;4.50;3.60;
62631;PMS5003;48703;51.248;-0.546;2024-01-07T02:06:50;3.76;3.76;
62631;PMS5003;48703;51.248;-0.546;2024-01-07T02:09:52;3.94;3.37;
62631;PMS5003;48703;51.248;-0.546;2024-01-07T02:12:53;3.39;3.39;
62631;PMS5003;48703;51.248;-0.546;2024-01-07T02:15:55;3.91;3.27;
62631;PMS5003;48703;51.248;-0.546;2024-01-07T02:18:57;3.59;2.99;
62631;PMS5003;48703;51.248;-0.546;2024-01-07T02:21:59;3.04;2.83;
62631;PMS5003;48703;51.248;-0.546;2024-01-07T02:25:01;3.61;3.53;
62631;PMS5003;48703;51.248;-0.546;2024-01-07T02:28:03;4.89;3.34;
62631;PMS5003;48703;51.248;-0.546;2024-01-07T02:31:04;3.07;3.07;
62631;PMS5003;48703;51.248;-0.546;2024-01-07T02:34:07;3.30;2.90;
62631;PMS5003;48703;51.248;-0.546;2024-01-07T02:37:08;2.40;2.17;
62631;PMS5003;48703;51.248;-0.546;2024-01-07T02:40:10;3.23;3.23;
62631;PMS5003;48703;51.248;-0.546;2024-01-07T02:43:12;3.90;2.46;
62631;PMS5003;48703;51.248;-0.546;2024-01-07T02:46:13;3.60;3.00;
62631;PMS5003;48703;51.248;-0.546;2024-01-07T02:49:15;3.39;3.21;
62631;PMS5003;48703;51.248;-0.546;2024-01-07T02:52:17;3.74;2.79;
62631;PMS5003;48703;51.248;-0.546;2024-01-07T02:55:19;3.40;3.40;
62631;PMS5003;48703;51.248;-0.546;2024-01-07T02:58:21;3.59;3.59;
62631;PMS5003;48703;51.248;-0.546;2024-01-07T03:01:22;3.46;3.46;
62631;PMS5003;48703;51.248;-0.546;2024-01-07T03:04:24;3.43;3.43;
62631;PMS5003;48703;51.248;-0.546;2024-01-07T03:07:26;3.97;3.97;
62631;PMS5003;48703;51.248;-0.546;2024-01-07T03:10:28;3.44;3.21;
62631;PMS5003;48703;51.248;-0.546;2024-01-07T03:13:30;3.80;3.34;
62631;PMS5003;48703;51.248;-0.546;2024-01-07T03:16:32;3.73;3.20;
62631;PMS5003;48703;51.248;-0.546;2024-01-07T03:19:33;4.78;3.74;
62631;PMS5003;48703;51.248;-0.546;2024-01-07T03:22:35;3.99;3.13;
62631;PMS5003;48703;51.248;-0.546;2024-01-07T03:25:37;3.74;3.40;
62631;PMS5003;48703;51.248;-0.546;2024-01-07T03:28:39;4.37;3.39;
62631;PMS5003;48703;51.248;-0.546;2024-01-07T03:31:40;3.69;3.26;
62631;PMS5003;48703;51.248;-0.546;2024-01-07T03:34:42;4.10;3.29;
62631;PMS5003;48703;51.248;-0.546;2024-01-07T03:37:44;4.76;3.77;
62631;PMS5003;48703;51.248;-0.546;2024-01-07T03:40:46;4.93;3.73;
62631;PMS5003;48703;51.248;-0.546;2024-01-07T03:43:48;3.83;3.79;
62631;PMS5003;48703;51.248;-0.546;2024-01-07T03:46:49;3.99;3.13;
62631;PMS5003;48703;51.248;-0.546;2024-01-07T03:49:51;2.93;2.93;
62631;PMS5003;48703;51.248;-0.546;2024-01-07T03:52:53;5.74;4.24;
62631;PMS5003;48703;51.248;-0.546;2024-01-07T03:55:55;4.24;4.11;
62631;PMS5003;48703;51.248;-0.546;2024-01-07T03:58:57;3.84;3.31;
62631;PMS5003;48703;51.248;-0.546;2024-01-07T04:01:58;3.69;3.69;
62631;PMS5003;48703;51.248;-0.546;2024-01-07T04:05:00;6.00;5.33;
62631;PMS5003;48703;51.248;-0.546;2024-01-07T04:08:03;4.66;4.00;
62631;PMS5003;48703;51.248;-0.546;2024-01-07T04:11:04;5.63;4.07;
62631;PMS5003;48703;51.248;-0.546;2024-01-07T04:14:06;6.33;5.84;
62631;PMS5003;48703;51.248;-0.546;2024-01-07T04:17:08;4.60;4.23;
62631;PMS5003;48703;51.248;-0.546;2024-01-07T04:20:12;4.64;4.43;
62631;PMS5003;48703;51.248;-0.546;2024-01-07T04:23:11;4.57;4.57;
62631;PMS5003;48703;51.248;-0.546;2024-01-07T04:26:13;4.23;3.71;
62631;PMS5003;48703;51.248;-0.546;2024-01-07T04:29:16;5.43;4.10;
62631;PMS5003;48703;51.248;-0.546;2024-01-07T04:32:17;4.40;3.90;
62631;PMS5003;48703;51.248;-0.546;2024-01-07T04:35:18;4.50;4.14;
62631;PMS5003;48703;51.248;-0.546;2024-01-07T04:38:20;3.74;3.64;
62631;PMS5003;48703;51.248;-0.546;2024-01-07T04:41:23;3.26;3.07;
62631;PMS5003;48703;51.248;-0.546;2024-01-07T04:44:24;5.20;4.30;
62631;PMS5003;48703;51.248;-0.546;2024-01-07T04:47:26;3.03;2.94;
62631;PMS5003;48703;51.248;-0.546;2024-01-07T04:50:28;2.97;2.37;
62631;PMS5003;48703;51.248;-0.546;2024-01-07T04:53:30;3.61;2.43;
62631;PMS5003;48703;51.248;-0.546;2024-01-07T04:56:32;2.83;2.83;
62631;PMS5003;48703;51.248;-0.546;2024-01-07T04:59:33;2.33;2.33;
62631;PMS5003;48703;51.248;-0.546;2024-01-07T05:02:35;2.34;2.09;
62631;PMS5003;48703;51.248;-0.546;2024-01-07T05:05:37;2.49;2.06;
62631;PMS5003;48703;51.248;-0.546;2024-01-07T05:08:39;2.26;2.11;
62631;PMS5003;48703;51.248;-0.546;2024-01-07T05:11:41;2.57;2.06;
62631;PMS5003;48703;51.248;-0.546;2024-01-07T05:14:43;3.44;2.33;
62631;PMS5003;48703;51.248;-0.546;2024-01-07T05:17:44;4.26;3.45;
62631;PMS5003;48703;51.248;-0.546;2024-01-07T05:20:46;2.51;2.39;
62631;PMS5003;48703;51.248;-0.546;2024-01-07T05:23:48;2.73;2.73;
62631;PMS5003;48703;51.248;-0.546;2024-01-07T05:26:50;1.53;1.53;
62631;PMS5003;48703;51.248;-0.546;2024-01-07T05:29:52;2.01;1.64;
62631;PMS5003;48703;51.248;-0.546;2024-01-07T05:32:54;4.23;2.60;
62631;PMS5003;48703;51.248;-0.546;2024-01-07T05:35:55;3.26;2.83;
62631;PMS5003;48703;51.248;-0.546;2024-01-07T05:38:57;4.41;2.51;
62631;PMS5003;48703;51.248;-0.546;2024-01-07T05:41:59;1.80;1.80;
62631;PMS5003;48703;51.248;-0.546;2024-01-07T05:45:01;3.41;2.73;
62631;PMS5003;48703;51.248;-0.546;2024-01-07T05:48:03;2.94;2.87;
62631;PMS5003;48703;51.248;-0.546;2024-01-07T05:51:05;3.06;2.59;
62631;PMS5003;48703;51.248;-0.546;2024-01-07T05:54:07;3.71;2.90;
62631;PMS5003;48703;51.248;-0.546;2024-01-07T05:57:09;2.57;2.34;
62631;PMS5003;48703;51.248;-0.546;2024-01-07T06:00:11;4.06;3.56;
62631;PMS5003;48703;51.248;-0.546;2024-01-07T06:03:12;3.29;2.74;
62631;PMS5003;48703;51.248;-0.546;2024-01-07T06:06:14;2.89;2.89;
62631;PMS5003;48703;51.248;-0.546;2024-01-07T06:09:16;3.40;3.20;
62631;PMS5003;48703;51.248;-0.546;2024-01-07T06:12:18;2.67;2.37;
62631;PMS5003;48703;51.248;-0.546;2024-01-07T06:15:20;3.30;2.47;
62631;PMS5003;48703;51.248;-0.546;2024-01-07T06:18:22;2.87;2.87;
62631;PMS5003;48703;51.248;-0.546;2024-01-07T06:21:23;1.91;1.91;
62631;PMS5003;48703;51.248;-0.546;2024-01-07T06:24:25;2.53;2.30;
62631;PMS5003;48703;51.248;-0.546;2024-01-07T06:27:27;2.54;2.07;
62631;PMS5003;48703;51.248;-0.546;2024-01-07T06:30:29;3.26;3.00;
62631;PMS5003;48703;51.248;-0.546;2024-01-07T06:33:31;2.69;1.96;
62631;PMS5003;48703;51.248;-0.546;2024-01-07T06:36:33;1.99;1.73;
62631;PMS5003;48703;51.248;-0.546;2024-01-07T06:39:35;2.31;1.89;
62631;PMS5003;48703;51.248;-0.546;2024-01-07T06:42:37;2.37;2.34;
62631;PMS5003;48703;51.248;-0.546;2024-01-07T06:45:39;3.84;3.33;
62631;PMS5003;48703;51.248;-0.546;2024-01-07T06:48:40;2.77;2.13;
62631;PMS5003;48703;51.248;-0.546;2024-01-07T06:51:42;3.26;2.76;
62631;PMS5003;48703;51.248;-0.546;2024-01-07T06:54:44;2.49;2.49;
62631;PMS5003;48703;51.248;-0.546;2024-01-07T06:57:45;2.59;2.06;
62631;PMS5003;48703;51.248;-0.546;2024-01-07T07:00:47;2.53;2.43;
62631;PMS5003;48703;51.248;-0.546;2024-01-07T07:03:49;2.89;2.07;
62631;PMS5003;48703;51.248;-0.546;2024-01-07T07:06:51;3.51;2.66;
62631;PMS5003;48703;51.248;-0.546;2024-01-07T07:09:53;3.19;2.76;
62631;PMS5003;48703;51.248;-0.546;2024-01-07T07:12:54;3.12;3.12;
62631;PMS5003;48703;51.248;-0.546;2024-01-07T07:15:56;2.56;2.50;
62631;PMS5003;48703;51.248;-0.546;2024-01-07T07:18:58;4.03;3.04;
62631;PMS5003;48703;51.248;-0.546;2024-01-07T07:22:00;3.19;2.61;
62631;PMS5003;48703;51.248;-0.546;2024-01-07T07:25:02;3.27;3.01;
62631;PMS5003;48703;51.248;-0.546;2024-01-07T07:28:04;3.39;2.96;
62631;PMS5003;48703;51.248;-0.546;2024-01-07T07:31:06;4.47;2.86;
62631;PMS5003;48703;51.248;-0.546;2024-01-07T07:34:08;2.97;2.97;
62631;PMS5003;48703;51.248;-0.546;2024-01-07T07:37:10;2.07;2.07;
62631;PMS5003;48703;51.248;-0.546;2024-01-07T07:40:12;2.09;2.09;
62631;PMS5003;48703;51.248;-0.546;2024-01-07T07:43:13;2.84;2.41;
62631;PMS5003;48703;51.248;-0.546;2024-01-07T07:46:15;2.27;2.27;
62631;PMS5003;48703;51.248;-0.546;2024-01-07T07:49:17;2.59;2.26;
62631;PMS5003;48703;51.248;-0.546;2024-01-07T07:52:19;3.89;2.71;
62631;PMS5003;48703;51.248;-0.546;2024-01-07T07:55:21;3.03;3.03;
62631;PMS5003;48703;51.248;-0.546;2024-01-07T07:58:23;3.27;2.83;
62631;PMS5003;48703;51.248;-0.546;2024-01-07T08:01:24;4.13;3.47;
62631;PMS5003;48703;51.248;-0.546;2024-01-07T08:04:26;2.81;2.24;
62631;PMS5003;48703;51.248;-0.546;2024-01-07T08:07:28;3.56;2.73;
62631;PMS5003;48703;51.248;-0.546;2024-01-07T08:10:30;2.69;2.49;
62631;PMS5003;48703;51.248;-0.546;2024-01-07T08:13:32;2.77;2.66;
62631;PMS5003;48703;51.248;-0.546;2024-01-07T08:16:34;2.84;2.60;
62631;PMS5003;48703;51.248;-0.546;2024-01-07T08:19:36;4.21;2.99;
62631;PMS5003;48703;51.248;-0.546;2024-01-07T08:22:38;2.87;2.80;
62631;PMS5003;48703;51.248;-0.546;2024-01-07T08:25:40;2.41;2.41;
62631;PMS5003;48703;51.248;-0.546;2024-01-07T08:28:42;2.91;2.46;
62631;PMS5003;48703;51.248;-0.546;2024-01-07T08:31:44;4.44;3.03;
62631;PMS5003;48703;51.248;-0.546;2024-01-07T08:34:45;3.46;2.59;
62631;PMS5003;48703;51.248;-0.546;2024-01-07T08:37:47;3.81;3.24;
62631;PMS5003;48703;51.248;-0.546;2024-01-07T08:40:49;3.84;2.99;
62631;PMS5003;48703;51.248;-0.546;2024-01-07T08:43:51;4.54;3.53;
62631;PMS5003;48703;51.248;-0.546;2024-01-07T08:46:53;3.24;2.83;
62631;PMS5003;48703;51.248;-0.546;2024-01-07T08:49:55;2.99;2.51;
62631;PMS5003;48703;51.248;-0.546;2024-01-07T08:52:57;3.14;3.00;
62631;PMS5003;48703;51.248;-0.546;2024-01-07T08:55:59;3.29;2.39;
62631;PMS5003;48703;51.248;-0.546;2024-01-07T08:59:01;3.71;3.59;
62631;PMS5003;48703;51.248;-0.546;2024-01-07T09:02:03;2.57;2.57;
62631;PMS5003;48703;51.248;-0.546;2024-01-07T09:05:05;3.31;2.57;
62631;PMS5003;48703;51.248;-0.546;2024-01-07T09:08:06;3.69;3.27;
62631;PMS5003;48703;51.248;-0.546;2024-01-07T09:11:08;3.26;2.90;
62631;PMS5003;48703;51.248;-0.546;2024-01-07T09:14:10;4.07;3.20;
62631;PMS5003;48703;51.248;-0.546;2024-01-07T09:17:12;3.97;3.07;
62631;PMS5003;48703;51.248;-0.546;2024-01-07T09:20:14;3.34;2.70;
62631;PMS5003;48703;51.248;-0.546;2024-01-07T09:23:15;2.29;1.94;
62631;PMS5003;48703;51.248;-0.546;2024-01-07T09:26:17;3.23;3.23;
62631;PMS5003;48703;51.248;-0.546;2024-01-07T09:29:19;3.81;2.91;
62631;PMS5003;48703;51.248;-0.546;2024-01-07T09:32:21;3.29;3.29;
62631;PMS5003;48703;51.248;-0.546;2024-01-07T09:35:23;4.47;2.69;
62631;PMS5003;48703;51.248;-0.546;2024-01-07T09:38:25;3.24;3.24;
62631;PMS5003;48703;51.248;-0.546;2024-01-07T09:41:27;4.73;4.14;
62631;PMS5003;48703;51.248;-0.546;2024-01-07T09:44:29;3.44;2.91;
62631;PMS5003;48703;51.248;-0.546;2024-01-07T09:47:31;3.23;2.84;
62631;PMS5003;48703;51.248;-0.546;2024-01-07T09:50:33;2.97;2.97;
62631;PMS5003;48703;51.248;-0.546;2024-01-07T09:53:35;4.00;4.00;
62631;PMS5003;48703;51.248;-0.546;2024-01-07T09:56:38;2.31;1.94;
62631;PMS5003;48703;51.248;-0.546;2024-01-07T09:59:38;3.36;3.17;
62631;PMS5003;48703;51.248;-0.546;2024-01-07T10:02:40;3.40;3.34;
62631;PMS5003;48703;51.248;-0.546;2024-01-07T10:05:42;3.11;3.11;
62631;PMS5003;48703;51.248;-0.546;2024-01-07T10:08:44;3.60;3.30;
62631;PMS5003;48703;51.248;-0.546;2024-01-07T10:11:46;3.76;3.76;
62631;PMS5003;48703;51.248;-0.546;2024-01-07T10:14:48;3.09;2.93;
62631;PMS5003;48703;51.248;-0.546;2024-01-07T10:17:50;3.27;2.89;
62631;PMS5003;48703;51.248;-0.546;2024-01-07T10:20:51;3.19;3.19;
62631;PMS5003;48703;51.248;-0.546;2024-01-07T10:23:55;4.50;3.99;
62631;PMS5003;48703;51.248;-0.546;2024-01-07T10:26:55;3.14;2.61;
62631;PMS5003;48703;51.248;-0.546;2024-01-07T10:29:58;3.61;3.61;
62631;PMS5003;48703;51.248;-0.546;2024-01-07T10:32:59;3.29;2.90;
62631;PMS5003;48703;51.248;-0.546;2024-01-07T10:36:01;4.11;3.16;
62631;PMS5003;48703;51.248;-0.546;2024-01-07T10:39:02;3.04;3.04;
62631;PMS5003;48703;51.248;-0.546;2024-01-07T10:42:04;2.97;2.79;
62631;PMS5003;48703;51.248;-0.546;2024-01-07T10:45:07;3.99;2.57;
62631;PMS5003;48703;51.248;-0.546;2024-01-07T10:48:08;4.14;3.27;
62631;PMS5003;48703;51.248;-0.546;2024-01-07T10:51:10;4.14;2.90;
62631;PMS5003;48703;51.248;-0.546;2024-01-07T10:54:12;2.99;2.17;
62631;PMS5003;48703;51.248;-0.546;2024-01-07T10:57:17;2.71;1.44;
62631;PMS5003;48703;51.248;-0.546;2024-01-07T11:00:16;3.44;2.63;
62631;PMS5003;48703;51.248;-0.546;2024-01-07T11:03:20;3.13;2.90;
62631;PMS5003;48703;51.248;-0.546;2024-01-07T11:06:25;1.71;1.71;
62631;PMS5003;48703;51.248;-0.546;2024-01-07T11:09:28;3.20;2.56;
62631;PMS5003;48703;51.248;-0.546;2024-01-07T11:12:23;3.51;2.99;
62631;PMS5003;48703;51.248;-0.546;2024-01-07T11:15:56;1.49;1.49;
62631;PMS5003;48703;51.248;-0.546;2024-01-07T11:18:27;2.79;2.74;
62631;PMS5003;48703;51.248;-0.546;2024-01-07T11:21:28;2.63;2.63;
62631;PMS5003;48703;51.248;-0.546;2024-01-07T11:24:38;2.44;2.09;
62631;PMS5003;48703;51.248;-0.546;2024-01-07T11:27:32;3.97;3.77;
62631;PMS5003;48703;51.248;-0.546;2024-01-07T11:30:37;3.59;2.97;
62631;PMS5003;48703;51.248;-0.546;2024-01-07T11:33:36;2.86;2.24;
62631;PMS5003;48703;51.248;-0.546;2024-01-07T11:36:38;4.51;3.19;
62631;PMS5003;48703;51.248;-0.546;2024-01-07T11:39:41;2.83;1.76;
62631;PMS5003;48703;51.248;-0.546;2024-01-07T11:42:41;2.81;2.13;
62631;PMS5003;48703;51.248;-0.546;2024-01-07T11:45:43;2.60;2.30;
62631;PMS5003;48703;51.248;-0.546;2024-01-07T11:48:45;2.44;2.30;
62631;PMS5003;48703;51.248;-0.546;2024-01-07T11:51:47;2.23;2.13;
62631;PMS5003;48703;51.248;-0.546;2024-01-07T11:54:48;1.89;1.89;
62631;PMS5003;48703;51.248;-0.546;2024-01-07T11:57:50;2.51;2.20;
62631;PMS5003;48703;51.248;-0.546;2024-01-07T12:00:52;1.53;1.46;
62631;PMS5003;48703;51.248;-0.546;2024-01-07T12:03:54;3.26;3.10;
62631;PMS5003;48703;51.248;-0.546;2024-01-07T12:06:56;4.49;3.51;
62631;PMS5003;48703;51.248;-0.546;2024-01-07T12:09:58;3.09;3.09;
62631;PMS5003;48703;51.248;-0.546;2024-01-07T12:13:00;2.41;2.20;
62631;PMS5003;48703;51.248;-0.546;2024-01-07T12:16:01;3.06;3.01;
62631;PMS5003;48703;51.248;-0.546;2024-01-07T12:19:04;2.31;2.23;
62631;PMS5003;48703;51.248;-0.546;2024-01-07T12:22:05;2.63;2.46;
62631;PMS5003;48703;51.248;-0.546;2024-01-07T12:25:07;2.79;2.79;
62631;PMS5003;48703;51.248;-0.546;2024-01-07T12:28:08;2.77;2.23;
62631;PMS5003;48703;51.248;-0.546;2024-01-07T12:31:11;2.67;2.67;
62631;PMS5003;48703;51.248;-0.546;2024-01-07T12:34:12;3.53;2.70;
62631;PMS5003;48703;51.248;-0.546;2024-01-07T12:37:14;2.60;2.44;
62631;PMS5003;48703;51.248;-0.546;2024-01-07T12:40:16;2.60;2.40;
62631;PMS5003;48703;51.248;-0.546;2024-01-07T12:43:18;2.64;2.49;
62631;PMS5003;48703;51.248;-0.546;2024-01-07T12:46:20;3.21;3.03;
62631;PMS5003;48703;51.248;-0.546;2024-01-07T12:49:21;3.91;3.29;
62631;PMS5003;48703;51.248;-0.546;2024-01-07T12:52:23;2.99;2.44;
62631;PMS5003;48703;51.248;-0.546;2024-01-07T12:55:26;2.86;2.67;
62631;PMS5003;48703;51.248;-0.546;2024-01-07T12:58:27;3.91;3.34;
62631;PMS5003;48703;51.248;-0.546;2024-01-07T13:01:29;4.49;3.81;
62631;PMS5003;48703;51.248;-0.546;2024-01-07T13:04:31;4.97;4.27;
62631;PMS5003;48703;51.248;-0.546;2024-01-07T13:07:34;2.57;2.37;
62631;PMS5003;48703;51.248;-0.546;2024-01-07T13:10:34;3.40;3.20;
62631;PMS5003;48703;51.248;-0.546;2024-01-07T13:13:37;4.31;3.77;
62631;PMS5003;48703;51.248;-0.546;2024-01-07T13:16:38;3.03;2.60;
62631;PMS5003;48703;51.248;-0.546;2024-01-07T13:19:40;3.14;2.59;
62631;PMS5003;48703;51.248;-0.546;2024-01-07T13:22:42;4.61;3.57;
62631;PMS5003;48703;51.248;-0.546;2024-01-07T13:25:44;4.84;4.23;
62631;PMS5003;48703;51.248;-0.546;2024-01-07T13:28:46;5.93;5.40;
62631;PMS5003;48703;51.248;-0.546;2024-01-07T13:31:48;4.24;4.09;
62631;PMS5003;48703;51.248;-0.546;2024-01-07T13:34:49;6.53;5.11;
62631;PMS5003;48703;51.248;-0.546;2024-01-07T13:37:51;4.20;4.20;
62631;PMS5003;48703;51.248;-0.546;2024-01-07T13:40:53;5.50;4.81;
62631;PMS5003;48703;51.248;-0.546;2024-01-07T13:43:55;4.07;3.64;
62631;PMS5003;48703;51.248;-0.546;2024-01-07T13:46:56;5.27;4.60;
62631;PMS5003;48703;51.248;-0.546;2024-01-07T13:49:58;4.66;4.64;
62631;PMS5003;48703;51.248;-0.546;2024-01-07T13:53:00;4.60;4.43;
62631;PMS5003;48703;51.248;-0.546;2024-01-07T13:56:03;4.11;3.84;
62631;PMS5003;48703;51.248;-0.546;2024-01-07T13:59:04;5.40;4.77;
62631;PMS5003;48703;51.248;-0.546;2024-01-07T14:02:06;5.26;4.66;
62631;PMS5003;48703;51.248;-0.546;2024-01-07T14:05:07;4.06;3.30;
62631;PMS5003;48703;51.248;-0.546;2024-01-07T14:08:10;3.04;3.04;
62631;PMS5003;48703;51.248;-0.546;2024-01-07T14:11:11;5.39;4.67;
62631;PMS5003;48703;51.248;-0.546;2024-01-07T14:14:12;4.83;3.30;
62631;PMS5003;48703;51.248;-0.546;2024-01-07T14:17:14;4.11;3.61;
62631;PMS5003;48703;51.248;-0.546;2024-01-07T14:20:16;3.56;3.00;
62631;PMS5003;48703;51.248;-0.546;2024-01-07T14:23:18;3.73;3.69;
62631;PMS5003;48703;51.248;-0.546;2024-01-07T14:26:19;3.57;3.57;
62631;PMS5003;48703;51.248;-0.546;2024-01-07T14:29:21;4.03;3.26;
62631;PMS5003;48703;51.248;-0.546;2024-01-07T14:32:23;4.96;4.24;
62631;PMS5003;48703;51.248;-0.546;2024-01-07T14:35:25;3.93;3.93;
62631;PMS5003;48703;51.248;-0.546;2024-01-07T14:38:27;4.61;4.29;
62631;PMS5003;48703;51.248;-0.546;2024-01-07T14:41:29;3.83;3.83;
62631;PMS5003;48703;51.248;-0.546;2024-01-07T14:44:30;4.00;3.30;
62631;PMS5003;48703;51.248;-0.546;2024-01-07T14:47:32;5.36;4.34;
62631;PMS5003;48703;51.248;-0.546;2024-01-07T14:50:34;3.73;3.30;
62631;PMS5003;48703;51.248;-0.546;2024-01-07T14:53:36;4.77;3.91;
62631;PMS5003;48703;51.248;-0.546;2024-01-07T14:56:38;3.96;3.96;
62631;PMS5003;48703;51.248;-0.546;2024-01-07T14:59:40;5.81;4.79;
62631;PMS5003;48703;51.248;-0.546;2024-01-07T15:02:41;4.54;4.29;
62631;PMS5003;48703;51.248;-0.546;2024-01-07T15:05:43;5.57;4.20;
62631;PMS5003;48703;51.248;-0.546;2024-01-07T15:08:45;4.10;3.99;
62631;PMS5003;48703;51.248;-0.546;2024-01-07T15:11:47;3.66;3.46;
62631;PMS5003;48703;51.248;-0.546;2024-01-07T15:14:49;4.30;3.34;
62631;PMS5003;48703;51.248;-0.546;2024-01-07T15:17:51;3.63;3.63;
62631;PMS5003;48703;51.248;-0.546;2024-01-07T15:20:53;4.27;3.84;
62631;PMS5003;48703;51.248;-0.546;2024-01-07T15:23:54;6.41;5.41;
62631;PMS5003;48703;51.248;-0.546;2024-01-07T15:26:56;5.30;4.79;
62631;PMS5003;48703;51.248;-0.546;2024-01-07T15:29:58;4.84;4.73;
62631;PMS5003;48703;51.248;-0.546;2024-01-07T15:33:00;3.60;3.60;
62631;PMS5003;48703;51.248;-0.546;2024-01-07T15:36:02;5.56;4.87;
62631;PMS5003;48703;51.248;-0.546;2024-01-07T15:39:03;5.40;4.29;
62631;PMS5003;48703;51.248;-0.546;2024-01-07T15:42:05;5.39;5.04;
62631;PMS5003;48703;51.248;-0.546;2024-01-07T15:45:07;3.97;3.67;
62631;PMS5003;48703;51.248;-0.546;2024-01-07T15:48:09;5.10;3.86;
62631;PMS5003;48703;51.248;-0.546;2024-01-07T15:51:10;4.80;4.69;
62631;PMS5003;48703;51.248;-0.546;2024-01-07T15:54:12;5.01;4.46;
62631;PMS5003;48703;51.248;-0.546;2024-01-07T15:57:14;4.69;3.97;
62631;PMS5003;48703;51.248;-0.546;2024-01-07T16:00:16;5.29;4.64;
62631;PMS5003;48703;51.248;-0.546;2024-01-07T16:03:18;5.43;4.61;
62631;PMS5003;48703;51.248;-0.546;2024-01-07T16:06:20;6.46;5.54;
62631;PMS5003;48703;51.248;-0.546;2024-01-07T16:09:22;6.97;6.01;
62631;PMS5003;48703;51.248;-0.546;2024-01-07T16:12:23;5.34;4.79;
62631;PMS5003;48703;51.248;-0.546;2024-01-07T16:15:25;6.26;5.99;
62631;PMS5003;48703;51.248;-0.546;2024-01-07T16:18:27;6.71;6.07;
62631;PMS5003;48703;51.248;-0.546;2024-01-07T16:21:29;7.99;6.64;
62631;PMS5003;48703;51.248;-0.546;2024-01-07T16:24:31;7.14;5.70;
62631;PMS5003;48703;51.248;-0.546;2024-01-07T16:27:33;6.04;6.04;
62631;PMS5003;48703;51.248;-0.546;2024-01-07T16:30:34;6.29;5.30;
62631;PMS5003;48703;51.248;-0.546;2024-01-07T16:33:36;7.71;6.64;
62631;PMS5003;48703;51.248;-0.546;2024-01-07T16:36:40;7.70;6.57;
62631;PMS5003;48703;51.248;-0.546;2024-01-07T16:39:40;6.87;6.61;
62631;PMS5003;48703;51.248;-0.546;2024-01-07T16:42:42;7.41;6.99;
62631;PMS5003;48703;51.248;-0.546;2024-01-07T16:45:43;9.23;8.45;
62631;PMS5003;48703;51.248;-0.546;2024-01-07T16:48:45;7.17;7.17;
62631;PMS5003;48703;51.248;-0.546;2024-01-07T16:51:47;8.14;7.29;
62631;PMS5003;48703;51.248;-0.546;2024-01-07T16:54:49;6.76;6.03;
62631;PMS5003;48703;51.248;-0.546;2024-01-07T16:57:51;7.36;7.00;
62631;PMS5003;48703;51.248;-0.546;2024-01-07T17:00:52;8.33;8.04;
62631;PMS5003;48703;51.248;-0.546;2024-01-07T17:03:54;8.32;7.26;
62631;PMS5003;48703;51.248;-0.546;2024-01-07T17:06:55;6.46;5.64;
62631;PMS5003;48703;51.248;-0.546;2024-01-07T17:09:58;8.09;7.79;
62631;PMS5003;48703;51.248;-0.546;2024-01-07T17:12:59;5.80;5.77;
62631;PMS5003;48703;51.248;-0.546;2024-01-07T17:16:01;6.51;6.51;
62631;PMS5003;48703;51.248;-0.546;2024-01-07T17:19:02;7.89;6.66;
62631;PMS5003;48703;51.248;-0.546;2024-01-07T17:22:04;5.71;5.66;
62631;PMS5003;48703;51.248;-0.546;2024-01-07T17:25:06;6.44;4.87;
62631;PMS5003;48703;51.248;-0.546;2024-01-07T17:28:08;7.33;6.77;
62631;PMS5003;48703;51.248;-0.546;2024-01-07T17:31:10;5.74;5.17;
62631;PMS5003;48703;51.248;-0.546;2024-01-07T17:34:11;6.17;5.31;
62631;PMS5003;48703;51.248;-0.546;2024-01-07T17:37:13;6.93;6.31;
62631;PMS5003;48703;51.248;-0.546;2024-01-07T17:40:15;6.94;6.34;
62631;PMS5003;48703;51.248;-0.546;2024-01-07T17:43:17;7.74;7.23;
62631;PMS5003;48703;51.248;-0.546;2024-01-07T17:46:19;7.34;6.31;
62631;PMS5003;48703;51.248;-0.546;2024-01-07T17:49:21;4.59;4.50;
62631;PMS5003;48703;51.248;-0.546;2024-01-07T17:52:22;9.07;6.50;
62631;PMS5003;48703;51.248;-0.546;2024-01-07T17:55:24;7.57;7.03;
62631;PMS5003;48703;51.248;-0.546;2024-01-07T17:58:26;6.90;6.49;
62631;PMS5003;48703;51.248;-0.546;2024-01-07T18:01:27;7.96;7.57;
62631;PMS5003;48703;51.248;-0.546;2024-01-07T18:04:29;7.89;7.86;
62631;PMS5003;48703;51.248;-0.546;2024-01-07T18:07:31;8.67;8.24;
62631;PMS5003;48703;51.248;-0.546;2024-01-07T18:10:33;8.83;7.87;
62631;PMS5003;48703;51.248;-0.546;2024-01-07T18:13:35;7.74;7.34;
62631;PMS5003;48703;51.248;-0.546;2024-01-07T18:16:37;8.70;6.51;
62631;PMS5003;48703;51.248;-0.546;2024-01-07T18:19:39;9.99;8.89;
62631;PMS5003;48703;51.248;-0.546;2024-01-07T18:22:40;14.04;12.63;
62631;PMS5003;48703;51.248;-0.546;2024-01-07T18:25:42;13.06;11.06;
62631;PMS5003;48703;51.248;-0.546;2024-01-07T18:28:44;8.24;7.00;
62631;PMS5003;48703;51.248;-0.546;2024-01-07T18:31:46;8.44;7.93;
62631;PMS5003;48703;51.248;-0.546;2024-01-07T18:34:48;7.93;6.71;